Time;durP1;ratioP1;P1;durP2;ratioP2;P2;SDS_P1;SDS_P2;PMS_P1;PMS_P2;Temp;Humidity;BMP_temperature;BMP_pressure;BME280_temperature;BME280_humidity;BME280_pressure;Samples;Min_cycle;Max_cycle;Signal;HPM_P1;HPM_P2
2023/09/15 00:00:34;;;;;;;15.17;11.60;;;;;;;-145.18;100.00;46654.53;5078875;28;20037;-58
2023/09/15 00:02:59;;;;;;;14.50;11.60;;;;;;;-145.18;100.00;46654.53;5073101;28;20033;-58
2023/09/15 00:05:28;;;;;;;17.47;11.97;;;;;;;-145.18;100.00;46654.53;5076741;28;20426;-59
2023/09/15 00:07:53;;;;;;;17.20;12.80;;;;;;;-145.18;100.00;46652.59;5073019;28;20035;-59
2023/09/15 00:10:21;;;;;;;11.73;9.23;;;;;;;-145.18;100.00;46650.63;5077304;28;20055;-59
2023/09/15 00:12:47;;;;;;;13.77;9.90;;;;;;;-145.18;100.00;46652.59;5078880;28;20024;-59
2023/09/15 00:15:13;;;;;;;13.13;10.73;;;;;;;-145.18;100.00;46654.53;5089888;28;20093;-59
2023/09/15 00:17:40;;;;;;;19.20;11.93;;;;;;;-145.18;100.00;46650.63;5081017;28;20043;-59
2023/09/15 00:20:13;;;;;;;14.63;10.77;;;;;;;-145.18;100.00;46650.63;5083523;28;20538;-59
2023/09/15 00:22:49;;;;;;;18.37;12.67;;;;;;;-145.18;100.00;46642.81;5084260;28;20570;-59
2023/09/15 00:25:18;;;;;;;16.65;12.05;;;;;;;-145.18;100.00;46652.59;5080847;28;20021;-59
2023/09/15 00:27:48;;;;;;;18.33;13.27;;;;;;;-145.18;100.00;46646.72;5085586;28;20055;-59
2023/09/15 00:30:15;;;;;;;15.83;11.83;;;;;;;-145.18;100.00;46648.69;5087942;28;20028;-58
2023/09/15 00:32:40;;;;;;;16.33;11.97;;;;;;;-145.18;100.00;46648.69;5082327;28;20382;-59
2023/09/15 00:35:06;;;;;;;18.23;12.53;;;;;;;-145.18;100.00;46644.78;5087195;28;20068;-59
2023/09/15 00:37:31;;;;;;;19.27;11.27;;;;;;;-145.18;100.00;46648.69;5085925;28;20020;-59
2023/09/15 00:39:57;;;;;;;17.53;12.83;;;;;;;-145.18;100.00;46648.69;5081806;28;20361;-59
2023/09/15 00:42:24;;;;;;;19.47;13.33;;;;;;;-145.18;100.00;46644.78;5082187;28;20039;-59
2023/09/15 00:44:51;;;;;;;20.60;14.03;;;;;;;-145.18;100.00;46646.72;5078330;28;20036;-59
2023/09/15 00:47:16;;;;;;;20.63;13.73;;;;;;;-145.18;100.00;46642.81;5077908;28;20377;-58
2023/09/15 00:49:42;;;;;;;22.47;13.87;;;;;;;-145.18;100.00;46646.72;5078826;28;20035;-58
2023/09/15 00:52:08;;;;;;;20.07;14.17;;;;;;;-145.18;100.00;46648.69;5097497;28;20032;-59
2023/09/15 00:54:33;;;;;;;20.70;13.77;;;;;;;-145.18;100.00;46644.78;5088843;28;20515;-59
2023/09/15 00:56:59;;;;;;;16.00;11.30;;;;;;;-145.18;100.00;46646.72;5099063;28;20022;-58
2023/09/15 00:59:25;;;;;;;16.63;12.23;;;;;;;-145.18;100.00;46642.81;5089644;28;20016;-59
2023/09/15 01:01:52;;;;;;;20.17;12.90;;;;;;;-145.18;100.00;46644.78;5083653;28;20052;-65
2023/09/15 01:04:17;;;;;;;21.37;13.73;;;;;;;-145.18;100.00;46648.69;5080387;28;20036;-65
2023/09/15 01:06:46;;;;;;;22.03;13.37;;;;;;;-145.18;100.00;46644.78;5080236;28;20027;-65
2023/09/15 01:09:12;;;;;;;20.80;12.83;;;;;;;-145.18;100.00;46644.78;5085006;28;20029;-65
2023/09/15 01:11:37;;;;;;;20.83;12.83;;;;;;;-145.18;100.00;46644.78;5083252;28;20050;-65
2023/09/15 01:14:02;;;;;;;20.83;13.30;;;;;;;-145.18;100.00;46648.69;5103143;28;20032;-65
2023/09/15 01:16:40;;;;;;;19.93;13.43;;;;;;;-145.18;100.00;46652.59;5088978;28;20035;-65
2023/09/15 01:19:24;;;;;;;18.83;13.67;;;;;;;-145.18;100.00;46648.69;5082813;28;20099;-65
2023/09/15 01:22:26;;;;;;;18.23;13.30;;;;;;;-145.18;100.00;46648.69;5090654;28;20118;-65
2023/09/15 01:25:30;;;;;;;22.43;13.83;;;;;;;-145.18;100.00;46650.63;5075374;28;20549;-65
2023/09/15 01:28:19;;;;;;;17.80;13.33;;;;;;;-145.18;100.00;46640.88;5088134;28;20548;-65
2023/09/15 01:30:46;;;;;;;25.03;14.07;;;;;;;-145.18;100.00;46642.81;5088203;28;20070;-65
2023/09/15 01:33:13;;;;;;;20.07;12.30;;;;;;;-145.18;100.00;46640.88;5082214;28;20020;-65
2023/09/15 01:35:39;;;;;;;22.33;13.93;;;;;;;-145.18;100.00;46642.81;5085148;28;20056;-65
2023/09/15 01:38:04;;;;;;;21.07;14.53;;;;;;;-145.18;100.00;46638.91;5086648;28;20105;-65
2023/09/15 01:40:31;;;;;;;24.53;14.77;;;;;;;-145.18;100.00;46642.81;5087272;28;20035;-65
2023/09/15 01:42:56;;;;;;;21.33;14.00;;;;;;;-145.18;100.00;46644.78;5085655;28;20032;-66
2023/09/15 01:45:22;;;;;;;16.47;12.93;;;;;;;-145.18;100.00;46642.81;5086073;28;20399;-65
2023/09/15 01:47:48;;;;;;;19.33;12.97;;;;;;;-145.18;100.00;46646.72;5091544;28;20036;-65
2023/09/15 01:50:15;;;;;;;19.80;11.37;;;;;;;-145.18;100.00;46642.81;5085121;28;20035;-65
2023/09/15 01:52:42;;;;;;;15.50;11.53;;;;;;;-145.18;100.00;46646.72;5085267;28;20547;-65
2023/09/15 01:55:08;;;;;;;16.70;11.23;;;;;;;-145.18;100.00;46648.69;5090316;28;20024;-65
2023/09/15 01:57:33;;;;;;;15.73;11.97;;;;;;;-145.18;100.00;46648.69;5087940;28;20028;-66
2023/09/15 01:59:59;;;;;;;22.30;14.70;;;;;;;-145.18;100.00;46644.78;5083937;28;20499;-65
2023/09/15 02:02:24;;;;;;;22.77;14.20;;;;;;;-145.18;100.00;46640.88;5088460;28;20040;-66
2023/09/15 02:04:50;;;;;;;19.30;14.07;;;;;;;-145.18;100.00;46640.88;5083855;28;20381;-65
2023/09/15 02:07:15;;;;;;;18.83;13.00;;;;;;;-145.18;100.00;46640.88;5078398;28;20460;-65
2023/09/15 02:09:41;;;;;;;19.27;13.37;;;;;;;-145.18;100.00;46642.81;5079716;28;20035;-59
2023/09/15 02:12:06;;;;;;;24.03;13.20;;;;;;;-145.18;100.00;46644.78;5092958;28;20047;-59
2023/09/15 02:14:32;;;;;;;19.53;13.57;;;;;;;-145.18;100.00;46642.81;5085091;28;20115;-58
2023/09/15 02:16:57;;;;;;;19.10;14.43;;;;;;;-145.18;100.00;46642.81;5081098;28;20099;-59
2023/09/15 02:19:24;;;;;;;20.77;14.83;;;;;;;-145.18;100.00;46640.88;5079160;28;20486;-60
2023/09/15 02:21:49;;;;;;;19.13;13.20;;;;;;;-145.18;100.00;46644.78;5076497;28;20032;-60
2023/09/15 02:24:16;;;;;;;19.10;13.90;;;;;;;-145.18;100.00;46638.91;5093276;28;20032;-58
2023/09/15 02:26:41;;;;;;;21.33;14.60;;;;;;;-145.18;100.00;46642.81;5078261;28;20041;-58
2023/09/15 02:29:07;;;;;;;23.17;15.23;;;;;;;-145.18;100.00;46640.88;5074880;28;20043;-59
2023/09/15 02:31:32;;;;;;;21.73;15.60;;;;;;;-145.18;100.00;46636.94;5078474;28;20033;-59
2023/09/15 02:33:59;;;;;;;23.60;15.80;;;;;;;-145.18;100.00;46638.91;5087166;28;20036;-59
2023/09/15 02:36:26;;;;;;;24.73;15.57;;;;;;;-145.18;100.00;46636.94;5081781;28;20047;-59
2023/09/15 02:38:54;;;;;;;24.53;15.97;;;;;;;-145.18;100.00;46638.91;5080589;28;20463;-59
2023/09/15 02:41:19;;;;;;;22.77;16.23;;;;;;;-145.18;100.00;46640.88;5080351;28;20035;-59
2023/09/15 02:43:48;;;;;;;22.40;16.30;;;;;;;-145.18;100.00;46642.81;5082110;28;20025;-59
2023/09/15 02:46:14;;;;;;;27.23;17.27;;;;;;;-145.18;100.00;46642.81;5075046;28;20025;-59
2023/09/15 02:48:43;;;;;;;25.00;16.53;;;;;;;-145.18;100.00;46638.91;5073520;28;20027;-59
2023/09/15 02:51:09;;;;;;;25.87;16.30;;;;;;;-145.18;100.00;46642.81;5078752;28;20067;-59
2023/09/15 02:53:34;;;;;;;23.10;15.53;;;;;;;-145.18;100.00;46642.81;5080247;28;20044;-59
2023/09/15 02:56:03;;;;;;;25.60;15.90;;;;;;;-145.18;100.00;46640.88;5080784;28;20391;-59
2023/09/15 02:58:28;;;;;;;25.43;16.60;;;;;;;-145.18;100.00;46660.41;5092697;28;20031;-59
2023/09/15 03:00:54;;;;;;;25.90;16.33;;;;;;;-145.18;100.00;46640.88;5079385;28;20059;-59
2023/09/15 03:03:24;;;;;;;22.80;15.90;;;;;;;-145.18;100.00;46636.94;5085587;28;20023;-59
2023/09/15 03:05:50;;;;;;;24.00;15.90;;;;;;;-145.18;100.00;46638.91;5090825;28;20503;-59
2023/09/15 03:08:16;;;;;;;19.80;14.43;;;;;;;-145.18;100.00;46638.91;5091854;28;20550;-59
2023/09/15 03:10:42;;;;;;;22.63;16.10;;;;;;;-145.18;100.00;46638.91;5090291;28;20395;-59
2023/09/15 03:13:08;;;;;;;25.00;15.53;;;;;;;-145.18;100.00;46640.88;5088500;28;20027;-59
2023/09/15 03:15:35;;;;;;;22.23;15.20;;;;;;;-145.18;100.00;46635.00;5087190;28;20058;-59
2023/09/15 03:18:00;;;;;;;23.67;15.63;;;;;;;-145.18;100.00;46638.91;5083692;28;20025;-59
2023/09/15 03:20:26;;;;;;;23.63;16.00;;;;;;;-145.18;100.00;46638.91;5092033;28;20543;-59
2023/09/15 03:22:51;;;;;;;24.47;15.33;;;;;;;-145.18;100.00;46636.94;5087513;28;20089;-59
2023/09/15 03:25:17;;;;;;;23.40;15.23;;;;;;;-145.18;100.00;46636.94;5091965;28;20032;-59
2023/09/15 03:27:43;;;;;;;26.47;16.03;;;;;;;-145.18;100.00;46660.41;5087153;28;20085;-58
2023/09/15 03:30:10;;;;;;;20.93;14.97;;;;;;;-145.18;100.00;46636.94;5084949;28;20047;-59
2023/09/15 03:32:35;;;;;;;25.03;15.47;;;;;;;-145.18;100.00;46660.41;5080376;28;20078;-60
2023/09/15 03:35:02;;;;;;;25.70;16.47;;;;;;;-145.18;100.00;46636.94;5084178;28;20036;-59
2023/09/15 03:37:27;;;;;;;29.30;14.83;;;;;;;-145.18;100.00;46638.91;5079547;28;20083;-59
2023/09/15 03:39:52;;;;;;;27.50;15.83;;;;;;;-145.18;100.00;46660.41;5091377;28;20067;-59
2023/09/15 03:42:18;;;;;;;25.23;15.57;;;;;;;-145.18;100.00;46636.94;5077947;28;20086;-59
2023/09/15 03:44:43;;;;;;;24.50;15.13;;;;;;;-145.18;100.00;46636.94;5079351;28;20024;-59
2023/09/15 03:47:09;;;;;;;20.07;14.50;;;;;;;-145.18;100.00;46660.41;5081855;28;20511;-59
2023/09/15 03:49:35;;;;;;;24.27;16.03;;;;;;;-145.18;100.00;46636.94;5090754;28;20082;-59
2023/09/15 03:52:00;;;;;;;25.73;15.93;;;;;;;-145.18;100.00;46660.41;5076901;28;20536;-59
2023/09/15 03:54:26;;;;;;;22.90;15.57;;;;;;;-145.18;100.00;46674.06;5082399;28;20103;-59
2023/09/15 03:56:51;;;;;;;27.13;16.10;;;;;;;-145.18;100.00;46638.91;5085208;28;20021;-60
2023/09/15 03:59:17;;;;;;;22.80;15.53;;;;;;;-145.18;100.00;46638.91;5081431;28;20032;-59
2023/09/15 04:01:42;;;;;;;27.63;16.13;;;;;;;-145.18;100.00;46638.91;5080062;28;20467;-59
2023/09/15 04:04:07;;;;;;;21.10;14.67;;;;;;;-145.18;100.00;46660.41;5090781;28;20413;-59
2023/09/15 04:06:35;;;;;;;24.73;16.77;;;;;;;-145.18;100.00;46635.00;5093700;28;20051;-59
2023/09/15 04:09:02;;;;;;;21.20;15.97;;;;;;;-145.18;100.00;46635.00;5092684;28;20058;-59
2023/09/15 04:11:28;;;;;;;20.67;14.13;;;;;;;-145.18;100.00;46638.91;5091377;28;20384;-59
2023/09/15 04:13:53;;;;;;;20.93;15.17;;;;;;;-145.18;100.00;46660.41;5091779;28;20169;-59
2023/09/15 04:16:19;;;;;;;22.43;15.43;;;;;;;-145.18;100.00;46644.78;5091761;28;20368;-59
2023/09/15 04:18:44;;;;;;;24.03;16.03;;;;;;;-145.18;100.00;46660.41;5090339;28;20120;-59
2023/09/15 04:21:10;;;;;;;22.83;14.47;;;;;;;-145.18;100.00;46642.81;5068180;28;20141;-59
2023/09/15 04:23:35;;;;;;;22.73;14.57;;;;;;;-145.18;100.00;46635.00;5094379;28;20032;-59
2023/09/15 04:26:00;;;;;;;22.90;14.43;;;;;;;-145.18;100.00;46640.88;5093709;28;20043;-58
2023/09/15 04:28:27;;;;;;;21.13;15.53;;;;;;;-145.18;100.00;46640.88;5094638;28;20063;-59
2023/09/15 04:30:53;;;;;;;22.00;14.87;;;;;;;-145.18;100.00;46638.91;5089951;28;20033;-59
2023/09/15 04:33:18;;;;;;;29.47;16.60;;;;;;;-145.18;100.00;46674.06;5093482;28;20030;-59
2023/09/15 04:35:43;;;;;;;31.23;15.40;;;;;;;-145.18;100.00;46635.00;5085612;28;20050;-59
2023/09/15 04:38:09;;;;;;;28.23;15.60;;;;;;;-145.18;100.00;46635.00;5089479;28;20422;-59
2023/09/15 04:40:34;;;;;;;25.27;15.23;;;;;;;-145.18;100.00;46636.94;5094127;28;20029;-59
2023/09/15 04:42:59;;;;;;;28.60;16.17;;;;;;;-145.18;100.00;46635.00;5079071;28;20448;-59
2023/09/15 04:45:26;;;;;;;24.10;15.03;;;;;;;-145.18;100.00;46660.41;5078574;28;20444;-59
2023/09/15 04:47:51;;;;;;;21.10;15.10;;;;;;;-145.18;100.00;46660.41;5088142;28;20089;-59
2023/09/15 04:50:17;;;;;;;24.77;14.90;;;;;;;-145.18;100.00;46660.41;5083444;28;20036;-59
2023/09/15 04:52:42;;;;;;;27.53;15.00;;;;;;;-145.18;100.00;46660.41;5086299;28;20028;-59
2023/09/15 04:55:08;;;;;;;26.03;15.47;;;;;;;-145.18;100.00;46638.91;5089802;28;20104;-59
2023/09/15 04:57:34;;;;;;;23.23;15.23;;;;;;;-145.18;100.00;46660.41;5080273;28;20111;-59
2023/09/15 05:00:00;;;;;;;28.47;15.63;;;;;;;-145.18;100.00;46660.41;5081776;28;20115;-59
2023/09/15 05:02:25;;;;;;;25.83;14.97;;;;;;;-145.18;100.00;46660.41;5126542;27;20066;-59
2023/09/15 05:04:52;;;;;;;21.17;14.50;;;;;;;-145.18;100.00;46660.41;5072884;28;20779;-59
2023/09/15 05:07:18;;;;;;;24.47;14.77;;;;;;;-145.18;100.00;46660.41;5078316;28;20044;-59
2023/09/15 05:09:43;;;;;;;22.43;15.50;;;;;;;-145.18;100.00;46660.41;5079888;28;20487;-61
2023/09/15 05:12:09;;;;;;;21.53;14.40;;;;;;;-145.18;100.00;46660.41;5080441;28;20430;-59
2023/09/15 05:14:34;;;;;;;22.13;14.93;;;;;;;-145.18;100.00;46660.41;5080720;28;20078;-59
2023/09/15 05:17:00;;;;;;;19.13;14.13;;;;;;;-145.18;100.00;46636.94;5079998;28;20029;-59
2023/09/15 05:19:25;;;;;;;22.57;14.07;;;;;;;-145.18;100.00;46633.06;5079137;28;20400;-59
2023/09/15 05:21:50;;;;;;;22.03;14.70;;;;;;;-145.18;100.00;46633.06;5084827;28;20488;-59
2023/09/15 05:24:16;;;;;;;26.40;14.77;;;;;;;-145.18;100.00;46660.41;5093010;28;20032;-59
2023/09/15 05:26:41;;;;;;;23.13;14.70;;;;;;;-145.18;100.00;46635.00;5096614;28;20032;-59
2023/09/15 05:29:07;;;;;;;30.93;14.20;;;;;;;-145.18;100.00;46660.41;5093184;28;20031;-59
2023/09/15 05:31:32;;;;;;;29.33;13.80;;;;;;;-145.18;100.00;46660.41;5091552;28;20426;-59
2023/09/15 05:33:58;;;;;;;22.33;13.80;;;;;;;-145.18;100.00;46660.41;5089240;28;20036;-59
2023/09/15 05:36:24;;;;;;;23.80;14.80;;;;;;;-145.18;100.00;46660.41;5091627;28;20052;-59
2023/09/15 05:38:50;;;;;;;26.83;14.43;;;;;;;-145.18;100.00;46660.41;5089769;28;20114;-59
2023/09/15 05:41:15;;;;;;;24.53;15.50;;;;;;;-145.18;100.00;46635.00;5094160;28;20024;-59
2023/09/15 05:43:40;;;;;;;22.20;14.67;;;;;;;-145.18;100.00;46660.41;5095615;28;20058;-59
2023/09/15 05:46:06;;;;;;;23.33;15.27;;;;;;;-145.18;100.00;46660.41;5082867;28;20072;-59
2023/09/15 05:48:32;;;;;;;21.00;13.43;;;;;;;-145.18;100.00;46633.06;5090446;28;20167;-59
2023/09/15 05:50:57;;;;;;;24.83;15.10;;;;;;;-145.18;100.00;46631.09;5084804;28;20115;-59
2023/09/15 05:53:22;;;;;;;22.10;13.83;;;;;;;-145.18;100.00;46660.41;5082351;28;20047;-59
2023/09/15 05:55:48;;;;;;;25.53;14.87;;;;;;;-145.18;100.00;46660.41;5080893;28;20028;-59
2023/09/15 05:58:14;;;;;;;28.13;15.43;;;;;;;-145.18;100.00;46629.13;5085771;28;20035;-59
2023/09/15 06:00:41;;;;;;;21.87;13.80;;;;;;;-145.18;100.00;46633.06;5090925;28;20039;-59
2023/09/15 06:03:07;;;;;;;26.70;14.33;;;;;;;-145.18;100.00;46633.06;5091352;28;20035;-59
2023/09/15 06:05:33;;;;;;;20.00;14.63;;;;;;;-145.18;100.00;46629.13;5090550;28;20506;-61
2023/09/15 06:07:59;;;;;;;22.17;14.63;;;;;;;-145.18;100.00;46627.19;5094103;28;20038;-59
2023/09/15 06:10:24;;;;;;;25.40;15.10;;;;;;;-145.18;100.00;46625.22;5092436;28;20032;-59
2023/09/15 06:12:50;;;;;;;24.90;14.53;;;;;;;-145.18;100.00;46629.13;5091455;28;20035;-59
2023/09/15 06:15:16;;;;;;;23.57;14.27;;;;;;;-145.18;100.00;46623.28;5088896;28;20038;-60
2023/09/15 06:17:41;;;;;;;24.30;15.03;;;;;;;-145.18;100.00;46627.19;5091986;28;20391;-59
2023/09/15 06:20:07;;;;;;;22.67;14.83;;;;;;;-145.18;100.00;46623.28;5088155;28;20384;-60
2023/09/15 06:22:33;;;;;;;23.57;14.20;;;;;;;-145.18;100.00;46625.22;5086762;28;20037;-59
2023/09/15 06:24:59;;;;;;;26.27;15.50;;;;;;;-145.18;100.00;46619.38;5084674;28;20054;-59
2023/09/15 06:27:24;;;;;;;26.97;15.90;;;;;;;-145.18;100.00;46619.38;5082576;28;20495;-60
2023/09/15 06:29:54;;;;;;;26.23;15.63;;;;;;;-145.18;100.00;46623.28;5088983;28;20569;-59
2023/09/15 06:32:20;;;;;;;21.97;14.07;;;;;;;-145.18;100.00;46615.47;5086983;28;20089;-59
2023/09/15 06:34:45;;;;;;;26.00;14.37;;;;;;;-145.18;100.00;46619.38;5077407;28;20032;-60
2023/09/15 06:37:10;;;;;;;24.60;14.53;;;;;;;-145.18;100.00;46621.31;5090970;28;20044;-60
2023/09/15 06:39:36;;;;;;;22.07;14.77;;;;;;;-145.18;100.00;46621.31;5087400;28;20032;-60
2023/09/15 06:42:05;;;;;;;24.90;15.40;;;;;;;-145.18;100.00;46615.47;5075032;28;20028;-59
2023/09/15 06:44:33;;;;;;;27.83;14.60;;;;;;;-145.18;100.00;46613.50;5083805;28;20035;-60
2023/09/15 06:46:59;;;;;;;23.73;14.30;;;;;;;-145.18;100.00;46617.41;5080257;28;20085;-59
2023/09/15 06:49:25;;;;;;;21.67;14.00;;;;;;;-145.18;100.00;46619.38;5110084;27;20029;-60
2023/09/15 06:51:50;;;;;;;23.80;14.27;;;;;;;-145.18;100.00;46619.38;5082041;28;20369;-67
2023/09/15 06:54:15;;;;;;;27.23;13.90;;;;;;;-145.18;100.00;46617.41;5084741;28;20060;-67
2023/09/15 06:56:41;;;;;;;16.97;12.43;;;;;;;-145.18;100.00;46615.47;5083459;28;20113;-67
2023/09/15 06:59:06;;;;;;;23.77;13.60;;;;;;;-145.18;100.00;46615.47;5076451;28;20051;-67
2023/09/15 07:01:31;;;;;;;25.07;13.60;;;;;;;-145.18;100.00;46615.47;5079970;28;20045;-67
2023/09/15 07:03:57;;;;;;;21.23;13.30;;;;;;;-145.18;100.00;46617.41;5082694;28;20031;-67
2023/09/15 07:06:22;;;;;;;21.93;13.23;;;;;;;-145.18;100.00;46621.31;5083710;28;20472;-67
2023/09/15 07:08:49;;;;;;;22.37;13.47;;;;;;;-145.18;100.00;46621.31;5084609;28;20081;-67
2023/09/15 07:11:15;;;;;;;18.57;12.20;;;;;;;-145.18;100.00;46619.38;5082737;28;20032;-67
2023/09/15 07:13:40;;;;;;;21.43;13.07;;;;;;;-145.18;100.00;46619.38;5083175;28;20450;-67
2023/09/15 07:16:06;;;;;;;22.13;13.73;;;;;;;-145.18;100.00;46619.38;5081714;28;20036;-67
2023/09/15 07:18:31;;;;;;;21.17;12.57;;;;;;;-145.18;100.00;46621.31;5081623;28;20066;-67
2023/09/15 07:20:56;;;;;;;18.10;12.03;;;;;;;-145.18;100.00;46621.31;5083990;28;20040;-67
2023/09/15 07:23:22;;;;;;;24.77;13.17;;;;;;;-145.18;100.00;46621.31;5081827;28;20027;-67
2023/09/15 07:25:48;;;;;;;18.27;11.70;;;;;;;-145.18;100.00;46619.38;5077105;28;20112;-67
2023/09/15 07:28:14;;;;;;;19.17;12.77;;;;;;;-145.18;100.00;46621.31;5080206;28;20042;-67
2023/09/15 07:30:39;;;;;;;21.57;11.80;;;;;;;-145.18;100.00;46623.28;5078008;28;20032;-67
2023/09/15 07:33:05;;;;;;;18.23;11.37;;;;;;;-145.18;100.00;46621.31;5080302;28;20112;-67
2023/09/15 07:35:30;;;;;;;17.17;12.37;;;;;;;-145.18;100.00;46633.06;5075193;28;20060;-67
2023/09/15 07:37:55;;;;;;;17.00;12.03;;;;;;;-145.18;100.00;46625.22;5078515;28;20488;-67
2023/09/15 07:40:22;;;;;;;19.47;11.60;;;;;;;-145.18;100.00;46629.13;5075266;28;20036;-67
2023/09/15 07:42:48;;;;;;;16.13;11.10;;;;;;;-145.18;100.00;46623.28;5087890;28;20029;-67
2023/09/15 07:45:13;;;;;;;18.40;11.20;;;;;;;-145.18;100.00;46629.13;5074119;28;20551;-67
2023/09/15 07:47:39;;;;;;;22.27;12.10;;;;;;;-145.18;100.00;46627.19;5076525;28;20032;-67
2023/09/15 07:50:05;;;;;;;18.37;12.47;;;;;;;-145.18;100.00;46627.19;5081581;28;20039;-67
2023/09/15 07:52:31;;;;;;;17.47;10.93;;;;;;;-145.18;100.00;46633.06;5077854;28;20036;-67
2023/09/15 07:54:56;;;;;;;18.47;11.47;;;;;;;-145.18;100.00;46625.22;5088919;28;20035;-68
2023/09/15 07:57:22;;;;;;;15.83;10.60;;;;;;;-145.18;100.00;46631.09;5081383;28;20028;-67
2023/09/15 07:59:47;;;;;;;16.03;11.20;;;;;;;-145.18;100.00;46633.06;5079936;28;20095;-67
2023/09/15 08:02:13;;;;;;;19.07;10.70;;;;;;;-145.18;100.00;46633.06;5080812;28;20028;-60
2023/09/15 08:04:39;;;;;;;18.63;10.60;;;;;;;-145.18;100.00;46636.94;5084595;28;20042;-59
2023/09/15 08:07:06;;;;;;;23.97;11.20;;;;;;;-145.18;100.00;46636.94;5120456;28;20040;-59
2023/09/15 08:09:31;;;;;;;14.83;10.07;;;;;;;-145.18;100.00;46636.94;5086594;28;20409;-59
2023/09/15 08:11:59;;;;;;;18.77;10.23;;;;;;;-145.18;100.00;46633.06;5091593;28;20040;-59
2023/09/15 08:14:28;;;;;;;16.53;9.53;;;;;;;-145.18;100.00;46644.78;5107975;28;20028;-59
2023/09/15 08:16:53;;;;;;;12.70;9.97;;;;;;;-145.18;100.00;46640.88;5089995;28;20049;-59
2023/09/15 08:19:20;;;;;;;20.57;10.23;;;;;;;-145.18;100.00;46646.72;5087021;28;20124;-59
2023/09/15 08:21:46;;;;;;;15.03;9.67;;;;;;;-145.18;100.00;46648.69;5084911;28;20471;-60
2023/09/15 08:24:11;;;;;;;14.80;9.93;;;;;;;-145.18;100.00;46648.69;5094007;28;20126;-59
2023/09/15 08:26:38;;;;;;;15.23;10.13;;;;;;;-145.18;100.00;46644.78;5081850;28;20380;-59
2023/09/15 08:29:04;;;;;;;14.30;8.70;;;;;;;-145.18;100.00;46652.59;5077040;28;20481;-60
2023/09/15 08:31:30;;;;;;;20.17;9.80;;;;;;;-145.18;100.00;46646.72;5072854;28;20032;-59
2023/09/15 08:33:55;;;;;;;15.50;9.40;;;;;;;-145.18;100.00;46648.69;5089064;28;20498;-59
2023/09/15 08:36:21;;;;;;;15.07;9.77;;;;;;;-145.18;100.00;46650.63;5090557;28;20071;-59
2023/09/15 08:38:46;;;;;;;12.10;9.03;;;;;;;-145.18;100.00;46644.78;5081047;28;20396;-60
2023/09/15 08:41:30;;;;;;;14.20;8.60;;;;;;;-145.18;100.00;46660.41;5089481;28;20039;-60
2023/09/15 08:43:56;;;;;;;14.50;9.03;;;;;;;-145.18;100.00;46652.59;5087564;28;20056;-59
2023/09/15 08:46:25;;;;;;;13.77;8.83;;;;;;;-145.18;100.00;46662.34;5091559;28;20059;-60
2023/09/15 08:48:51;;;;;;;11.63;8.13;;;;;;;-145.18;100.00;46666.25;5092000;28;20043;-60
2023/09/15 08:51:18;;;;;;;12.00;7.57;;;;;;;-145.18;100.00;46668.22;5093208;28;20500;-60
2023/09/15 08:53:43;;;;;;;12.73;7.40;;;;;;;-145.18;100.00;46670.16;5091274;28;20107;-59
2023/09/15 08:56:09;;;;;;;11.73;8.27;;;;;;;-145.18;100.00;46670.16;5095142;28;20103;-59
2023/09/15 08:58:36;;;;;;;15.40;8.00;;;;;;;-145.18;100.00;46668.22;5122909;27;20404;-59
2023/09/15 09:01:07;;;;;;;12.20;7.93;;;;;;;-145.18;100.00;46668.22;5087803;28;20052;-59
2023/09/15 09:03:35;;;;;;;11.83;8.47;;;;;;;-145.18;100.00;46668.22;5102173;28;20418;-59
2023/09/15 09:06:01;;;;;;;9.87;7.27;;;;;;;-145.18;100.00;46658.44;5083847;28;20077;-59
2023/09/15 09:08:26;;;;;;;10.03;7.40;;;;;;;-145.18;100.00;46652.59;5089482;28;20023;-60
2023/09/15 09:10:52;;;;;;;9.67;6.97;;;;;;;-145.18;100.00;46646.72;5066249;28;20119;-59
2023/09/15 09:13:21;;;;;;;10.20;7.40;;;;;;;-145.18;100.00;46652.59;5088877;28;20388;-59
2023/09/15 09:15:47;;;;;;;13.80;8.17;;;;;;;-145.18;100.00;46652.59;5086093;28;20024;-59
2023/09/15 09:18:17;;;;;;;10.33;6.60;;;;;;;-145.18;100.00;46646.72;5094691;28;20031;-59
2023/09/15 09:20:43;;;;;;;9.13;6.73;;;;;;;-145.18;100.00;46578.34;5087476;28;20040;-60
2023/09/15 09:23:09;;;;;;;9.57;7.27;;;;;;;-145.18;100.00;46568.59;5091198;28;20039;-60
2023/09/15 09:25:35;;;;;;;10.87;7.80;;;;;;;-145.18;100.00;46568.59;5086067;28;20028;-59
2023/09/15 09:28:03;;;;;;;10.10;6.47;;;;;;;-145.18;100.00;46539.28;5089880;28;20039;-60
2023/09/15 09:30:29;;;;;;;9.03;6.50;;;;;;;-145.18;100.00;46547.09;5092143;28;20056;-60
2023/09/15 09:32:58;;;;;;;11.57;7.00;;;;;;;-145.18;100.00;46541.25;5089917;28;20077;-59
2023/09/15 09:35:25;;;;;;;12.47;7.70;;;;;;;-145.18;100.00;46539.28;5087307;28;20029;-60
2023/09/15 09:37:52;;;;;;;8.90;6.77;;;;;;;-145.18;100.00;46539.28;5089528;28;20020;-60
2023/09/15 09:40:19;;;;;;;11.47;6.87;;;;;;;-145.18;100.00;46539.28;5093809;28;20566;-60
2023/09/15 09:42:45;;;;;;;8.93;7.10;;;;;;;-145.18;100.00;46541.25;5089414;28;20046;-60
2023/09/15 09:45:11;;;;;;;10.13;6.73;;;;;;;-145.18;100.00;46543.19;5082903;28;20060;-60
2023/09/15 09:47:36;;;;;;;12.13;7.23;;;;;;;-145.18;100.00;46545.16;5088491;28;20024;-60
2023/09/15 09:50:06;;;;;;;8.17;6.33;;;;;;;-145.18;100.00;46545.16;5084026;28;20444;-60
2023/09/15 09:52:33;;;;;;;9.23;6.40;;;;;;;-145.18;100.00;46545.16;5093961;28;20467;-59
2023/09/15 09:55:04;;;;;;;11.00;6.33;;;;;;;-145.18;100.00;46537.34;5089582;28;20426;-60
2023/09/15 09:57:30;;;;;;;9.50;6.53;;;;;;;-145.18;100.00;46543.19;5092110;28;20089;-60
2023/09/15 09:59:55;;;;;;;11.33;6.43;;;;;;;-145.18;100.00;46535.38;5080635;28;20119;-60
2023/09/15 10:02:20;;;;;;;12.57;6.93;;;;;;;-145.18;100.00;46535.38;5088090;28;20028;-60
2023/09/15 10:04:46;;;;;;;8.33;6.40;;;;;;;-145.18;100.00;46533.44;5081194;28;20077;-60
2023/09/15 10:07:12;;;;;;;10.97;6.07;;;;;;;-145.18;100.00;46547.09;5083170;28;20043;-60
2023/09/15 10:09:39;;;;;;;9.50;6.43;;;;;;;-145.18;100.00;46537.34;5085889;28;20031;-59
2023/09/15 10:12:05;;;;;;;10.77;6.60;;;;;;;-145.18;100.00;46539.28;5083915;28;20035;-60
2023/09/15 10:14:31;;;;;;;9.43;6.80;;;;;;;-145.18;100.00;46539.28;5117844;27;20029;-60
2023/09/15 10:16:58;;;;;;;12.17;6.63;;;;;;;-145.18;100.00;46545.16;5093747;28;20070;-59
2023/09/15 10:19:24;;;;;;;11.10;6.50;;;;;;;-145.18;100.00;46554.91;5086855;28;20361;-60
2023/09/15 10:21:50;;;;;;;9.40;7.00;;;;;;;-145.18;100.00;46562.72;5091184;28;20052;-60
2023/09/15 10:24:16;;;;;;;11.53;6.80;;;;;;;-145.18;100.00;46568.59;5090301;28;20020;-60
2023/09/15 10:26:41;;;;;;;9.27;6.63;;;;;;;-145.18;100.00;46558.81;5091315;28;20074;-60
2023/09/15 10:29:08;;;;;;;12.37;7.00;;;;;;;-145.18;100.00;46558.81;5090423;28;20021;-59
2023/09/15 10:31:34;;;;;;;11.17;6.97;;;;;;;-145.18;100.00;46547.09;5092403;28;20032;-59
2023/09/15 10:34:04;;;;;;;11.27;7.60;;;;;;;-145.18;100.00;46562.72;5091352;28;20537;-60
2023/09/15 10:36:31;;;;;;;10.27;6.73;;;;;;;-145.18;100.00;46578.34;5090544;28;20077;-60
2023/09/15 10:38:58;;;;;;;13.03;6.87;;;;;;;-145.18;100.00;46572.50;5089200;28;20093;-60
2023/09/15 10:41:29;;;;;;;11.93;7.13;;;;;;;-145.18;100.00;46556.88;5093074;28;20051;-60
2023/09/15 10:43:55;;;;;;;10.93;7.43;;;;;;;-145.18;100.00;46842.06;5091096;28;20436;-60
2023/09/15 10:46:21;;;;;;;9.63;6.67;;;;;;;-145.18;100.00;46570.53;5090191;28;20032;-60
2023/09/15 10:48:48;;;;;;;10.20;7.33;;;;;;;-145.18;100.00;46957.31;5089895;28;20044;-60
2023/09/15 10:51:18;;;;;;;11.57;7.47;;;;;;;-145.18;100.00;47117.50;5091517;28;20079;-60
2023/09/15 10:53:56;;;;;;;9.47;6.63;;;;;;;-145.18;100.00;47121.41;5088537;28;20028;-60